createdAt,value
2023-02-21T00:00:05.025Z,60.95
2023-02-21T00:03:18.289Z,48.90
2023-02-21T00:06:04.473Z,13.13
2023-02-21T00:08:50.845Z,13.52
2023-02-21T00:11:36.946Z,11.50
2023-02-21T00:14:25.034Z,11.90
2023-02-21T00:17:11.103Z,11.07
2023-02-21T00:19:57.574Z,12.05
2023-02-21T00:22:43.798Z,14.45
2023-02-21T00:25:30.135Z,14.55
2023-02-21T00:28:18.799Z,13.68
2023-02-21T00:31:07.035Z,13.88
2023-02-21T00:33:55.128Z,9.93
2023-02-21T00:36:41.720Z,14.32
2023-02-21T00:39:27.972Z,14.25
2023-02-21T00:42:14.867Z,14.57
2023-02-21T00:45:01.085Z,14.00
2023-02-21T00:47:49.274Z,13.50
2023-02-21T00:50:36.223Z,16.02
2023-02-21T00:53:23.172Z,12.10
2023-02-21T00:56:09.264Z,11.82
2023-02-21T00:58:55.585Z,12.77
2023-02-21T01:01:41.847Z,12.98
2023-02-21T01:04:30.429Z,14.98
2023-02-21T01:07:16.645Z,20.20
2023-02-21T01:10:03.216Z,16.83
2023-02-21T01:12:49.490Z,16.42
2023-02-21T01:15:37.509Z,17.10
2023-02-21T01:18:24.101Z,15.05
2023-02-21T01:21:12.057Z,18.52
2023-02-21T01:23:58.486Z,22.45
2023-02-21T01:26:44.854Z,18.85
2023-02-21T01:29:31.081Z,13.32
2023-02-21T01:32:19.816Z,15.45
2023-02-21T01:35:05.800Z,15.65
2023-02-21T01:37:53.523Z,19.67
2023-02-21T01:40:40.008Z,18.02
2023-02-21T01:43:34.238Z,14.32
2023-02-21T01:46:20.431Z,16.30
2023-02-21T01:49:09.796Z,19.35
2023-02-21T01:51:59.895Z,27.42
2023-02-21T01:54:51.634Z,17.90
2023-02-21T01:57:39.258Z,18.60
2023-02-21T02:00:29.337Z,18.48
2023-02-21T02:03:17.820Z,21.50
2023-02-21T02:06:08.194Z,16.63
2023-02-21T02:08:55.861Z,17.33
2023-02-21T02:12:01.784Z,18.08
2023-02-21T02:15:03.780Z,16.33
2023-02-21T02:17:46.197Z,18.20
2023-02-21T02:20:42.205Z,16.67
2023-02-21T02:23:54.442Z,19.92
2023-02-21T02:27:06.146Z,21.88
2023-02-21T02:30:02.891Z,23.02
2023-02-21T02:32:47.794Z,18.73
2023-02-21T02:35:23.393Z,23.00
2023-02-21T02:37:59.278Z,22.92
2023-02-21T02:40:36.256Z,23.40
2023-02-21T02:43:12.757Z,14.50
2023-02-21T02:45:47.364Z,15.27
2023-02-21T02:48:21.079Z,21.33
2023-02-21T02:50:53.349Z,19.73
2023-02-21T02:53:26.479Z,21.13
2023-02-21T02:55:58.988Z,17.67
2023-02-21T02:58:34.091Z,16.40
2023-02-21T03:01:20.320Z,20.00
2023-02-21T03:04:03.722Z,20.08
2023-02-21T03:06:45.325Z,24.88
2023-02-21T03:09:20.244Z,21.45
2023-02-21T03:11:57.874Z,19.38
2023-02-21T03:14:31.562Z,15.73
2023-02-21T03:17:09.280Z,17.88
2023-02-21T03:19:41.076Z,18.60
2023-02-21T03:22:15.255Z,16.70
2023-02-21T03:24:46.167Z,16.45
2023-02-21T03:27:16.822Z,15.52
2023-02-21T03:29:55.978Z,14.98
2023-02-21T03:32:27.602Z,16.10
2023-02-21T03:34:57.936Z,19.30
2023-02-21T03:37:36.339Z,15.10
2023-02-21T03:40:06.831Z,18.88
2023-02-21T03:42:37.220Z,13.95
2023-02-21T03:45:06.684Z,17.13
2023-02-21T03:47:35.998Z,12.13
2023-02-21T03:50:06.151Z,17.25
2023-02-21T03:52:38.898Z,15.65
2023-02-21T03:57:38.202Z,16.65
2023-02-21T04:00:07.844Z,14.05
2023-02-21T04:02:44.044Z,20.23
2023-02-21T04:05:22.511Z,15.63
2023-02-21T04:07:53.006Z,17.17
2023-02-21T04:10:21.715Z,16.42
2023-02-21T04:12:51.904Z,19.20
2023-02-21T04:15:20.854Z,20.92
2023-02-21T04:17:49.876Z,19.48
2023-02-21T04:20:19.001Z,15.55
2023-02-21T04:23:02.871Z,23.55
2023-02-21T04:25:32.405Z,18.10
2023-02-21T04:28:06.421Z,18.98
2023-02-21T04:30:35.888Z,18.23
2023-02-21T04:33:05.416Z,19.63
2023-02-21T04:35:34.246Z,19.60
2023-02-21T04:38:10.242Z,19.88
2023-02-21T04:40:38.986Z,16.63
2023-02-21T04:43:08.086Z,18.80
2023-02-21T04:45:37.053Z,20.70
2023-02-21T04:48:06.676Z,19.52
2023-02-21T04:50:35.430Z,20.17
2023-02-21T04:53:04.532Z,19.17
2023-02-21T04:55:34.610Z,18.85
2023-02-21T04:58:03.671Z,25.40
2023-02-21T05:00:32.456Z,23.85
2023-02-21T05:03:01.526Z,13.27
2023-02-21T05:05:30.297Z,18.92
2023-02-21T05:07:59.408Z,20.90
2023-02-21T05:10:43.517Z,16.65
2023-02-21T05:13:15.751Z,23.58
2023-02-21T05:15:44.507Z,23.50
2023-02-21T05:18:13.544Z,18.90
2023-02-21T05:20:42.395Z,21.23
2023-02-21T05:23:13.825Z,22.15
2023-02-21T05:25:42.902Z,26.02
2023-02-21T05:28:12.016Z,16.77
2023-02-21T05:30:42.491Z,23.70
2023-02-21T05:33:11.558Z,20.55
2023-02-21T05:35:40.233Z,18.33
2023-02-21T05:38:09.323Z,16.25
2023-02-21T05:40:38.237Z,15.38
2023-02-21T05:43:07.326Z,19.80
2023-02-21T05:45:36.064Z,18.35
2023-02-21T05:48:06.735Z,19.60
2023-02-21T05:50:35.750Z,18.80
2023-02-21T05:53:04.831Z,20.25
2023-02-21T05:55:33.599Z,17.50
2023-02-21T05:58:02.656Z,19.73
2023-02-21T06:00:32.724Z,16.70
2023-02-21T06:05:35.293Z,16.02
2023-02-21T06:08:04.330Z,19.42
2023-02-21T06:10:33.034Z,19.80
2023-02-21T06:13:02.174Z,18.25
2023-02-21T06:15:30.919Z,22.80
2023-02-21T06:17:59.983Z,21.75
2023-02-21T06:20:28.988Z,16.23
2023-02-21T06:22:59.453Z,22.70
2023-02-21T06:25:28.234Z,23.27
2023-02-21T06:27:57.241Z,23.30
2023-02-21T06:30:26.163Z,21.55
2023-02-21T06:32:55.612Z,19.63
2023-02-21T06:35:24.562Z,16.40
2023-02-21T06:37:53.602Z,23.15
2023-02-21T06:40:23.702Z,16.92
2023-02-21T06:42:52.797Z,21.20
2023-02-21T06:45:21.527Z,23.60
2023-02-21T06:47:50.644Z,20.98
2023-02-21T06:50:19.558Z,19.08
2023-02-21T06:52:48.602Z,19.48
2023-02-21T06:55:25.506Z,16.90
2023-02-21T06:57:54.850Z,62.08
2023-02-21T07:00:24.046Z,139.70
2023-02-21T07:02:53.020Z,48.37
2023-02-21T07:05:22.004Z,101.00
2023-02-21T07:07:51.086Z,46.87
2023-02-21T07:10:20.028Z,149.85
2023-02-21T07:12:50.406Z,397.48
2023-02-21T07:15:19.224Z,196.65
2023-02-21T07:17:48.288Z,72.20
2023-02-21T07:20:17.119Z,85.20
2023-02-21T07:22:46.164Z,34.97
2023-02-21T07:25:16.995Z,30.42
2023-02-21T07:27:48.771Z,28.27
2023-02-21T07:30:18.090Z,29.38
2023-02-21T07:32:47.231Z,27.08
2023-02-21T07:35:16.032Z,20.17
2023-02-21T07:37:45.206Z,27.85
2023-02-21T07:40:13.937Z,22.70
2023-02-21T07:42:44.615Z,21.77
2023-02-21T07:45:15.814Z,24.35
2023-02-21T07:47:47.966Z,26.48
2023-02-21T07:50:18.202Z,27.90
2023-02-21T07:52:47.735Z,24.58
2023-02-21T07:55:16.553Z,29.42
2023-02-21T07:57:46.206Z,22.05
2023-02-21T08:00:17.182Z,24.07
2023-02-21T08:02:49.813Z,23.35
2023-02-21T08:05:20.159Z,29.58
2023-02-21T08:07:49.601Z,23.02
2023-02-21T08:10:23.247Z,22.33
2023-02-21T08:12:52.488Z,26.50
2023-02-21T08:15:22.987Z,23.08
2023-02-21T08:17:52.597Z,24.20
2023-02-21T08:20:21.402Z,25.17
2023-02-21T08:22:50.486Z,26.60
2023-02-21T08:25:19.439Z,28.70
2023-02-21T08:27:53.515Z,25.85
2023-02-21T08:30:25.282Z,25.35
2023-02-21T08:32:54.723Z,22.08
2023-02-21T08:35:23.729Z,26.60
2023-02-21T08:37:56.823Z,24.23
2023-02-21T08:40:26.340Z,19.27
2023-02-21T08:42:55.788Z,26.73
2023-02-21T08:45:27.942Z,23.38
2023-02-21T08:47:57.475Z,26.80
2023-02-21T08:50:28.491Z,27.23
2023-02-21T08:52:58.036Z,23.17
2023-02-21T08:55:26.804Z,32.45
2023-02-21T08:57:56.517Z,22.88
2023-02-21T09:00:28.374Z,23.17
2023-02-21T09:02:59.688Z,23.23
2023-02-21T09:05:30.704Z,17.63
2023-02-21T09:08:01.522Z,19.10
2023-02-21T09:10:33.968Z,28.05
2023-02-21T09:13:03.545Z,23.33
2023-02-21T09:15:33.601Z,19.40
2023-02-21T09:18:02.661Z,22.15
2023-02-21T09:20:31.531Z,25.30
2023-02-21T09:23:00.666Z,30.63
2023-02-21T09:25:29.547Z,17.20
2023-02-21T09:28:00.475Z,29.25
2023-02-21T09:30:29.646Z,20.55
2023-02-21T09:33:01.207Z,25.38
2023-02-21T09:35:30.916Z,27.23
2023-02-21T09:38:01.019Z,31.58
2023-02-21T09:40:38.206Z,23.27
2023-02-21T09:43:15.088Z,23.60
2023-02-21T09:45:45.108Z,26.60
2023-02-21T09:48:19.852Z,26.38
2023-02-21T09:50:51.293Z,20.77
2023-02-21T09:53:24.958Z,27.02
2023-02-21T09:55:58.450Z,27.75
2023-02-21T09:58:27.713Z,20.67
2023-02-21T10:01:00.089Z,27.15
2023-02-21T10:03:45.049Z,28.98
2023-02-21T10:06:24.598Z,25.02
2023-02-21T10:09:00.589Z,22.98
2023-02-21T10:11:48.346Z,21.27
2023-02-21T10:14:28.176Z,21.02
2023-02-21T10:17:04.355Z,22.87
2023-02-21T10:19:38.668Z,22.27
2023-02-21T10:22:20.508Z,25.38
2023-02-21T10:24:50.356Z,32.25
2023-02-21T10:27:21.195Z,29.85
2023-02-21T10:29:55.507Z,28.33
2023-02-21T10:32:25.820Z,26.45
2023-02-21T10:34:58.681Z,31.25
2023-02-21T10:37:39.168Z,26.63
2023-02-21T10:40:25.893Z,30.35
2023-02-21T10:42:59.206Z,26.40
2023-02-21T10:45:35.231Z,20.58
2023-02-21T10:48:07.542Z,28.40
2023-02-21T10:51:06.245Z,31.35
2023-02-21T10:53:37.606Z,26.35
2023-02-21T10:56:28.142Z,25.20
2023-02-21T10:59:00.774Z,20.23
2023-02-21T11:01:37.808Z,29.10
2023-02-21T11:04:08.701Z,28.67
2023-02-21T11:06:41.414Z,29.00
2023-02-21T11:09:32.356Z,28.67
2023-02-21T11:12:04.116Z,26.48
2023-02-21T11:14:33.974Z,23.45
2023-02-21T11:19:52.124Z,19.98
2023-02-21T11:22:25.790Z,26.95
2023-02-21T11:25:02.214Z,24.25
2023-02-21T11:27:35.333Z,25.42
2023-02-21T11:30:16.843Z,26.27
2023-02-21T11:32:52.670Z,26.75
2023-02-21T11:35:27.419Z,29.02
2023-02-21T11:38:00.238Z,26.95
2023-02-21T11:40:35.498Z,27.05
2023-02-21T11:43:24.986Z,21.30
2023-02-21T11:46:12.044Z,20.20
2023-02-21T11:48:50.286Z,34.65
2023-02-21T11:51:31.997Z,26.05
2023-02-21T11:54:02.925Z,21.63
2023-02-21T11:57:03.797Z,19.63
2023-02-21T11:59:44.763Z,19.35
2023-02-21T12:02:46.499Z,21.75
2023-02-21T12:05:32.995Z,21.33
2023-02-21T12:08:22.988Z,21.50
2023-02-21T12:13:37.747Z,19.25
2023-02-21T12:16:22.057Z,23.80
2023-02-21T12:19:08.553Z,22.65
2023-02-21T12:21:56.832Z,20.25
2023-02-21T12:24:38.587Z,21.83
2023-02-21T12:27:18.280Z,17.95
2023-02-21T12:30:00.786Z,18.87
2023-02-21T12:32:51.166Z,24.85
2023-02-21T12:36:02.160Z,27.73
2023-02-21T12:38:41.337Z,21.30
2023-02-21T12:41:23.373Z,21.42
2023-02-21T12:44:03.297Z,19.92
2023-02-21T12:46:40.646Z,24.55
2023-02-21T12:49:17.501Z,21.45
2023-02-21T12:51:51.497Z,19.13
2023-02-21T12:54:37.951Z,20.52
2023-02-21T12:57:12.116Z,20.40
2023-02-21T12:59:54.359Z,19.85
2023-02-21T13:02:43.157Z,14.15
2023-02-21T13:05:17.984Z,18.65
2023-02-21T13:07:51.146Z,20.95
2023-02-21T13:10:24.672Z,19.35
2023-02-21T13:12:59.144Z,23.00
2023-02-21T13:15:31.590Z,18.45
2023-02-21T13:18:06.068Z,15.50
2023-02-21T13:20:41.025Z,17.27
2023-02-21T13:23:58.961Z,21.63
2023-02-21T13:26:40.594Z,18.98
2023-02-21T13:29:19.326Z,18.70
2023-02-21T13:31:58.261Z,33.67
2023-02-21T13:34:30.790Z,26.13
2023-02-21T13:37:06.064Z,22.33
2023-02-21T13:39:37.547Z,20.52
2023-02-21T13:42:10.142Z,17.08
2023-02-21T13:44:43.453Z,21.98
2023-02-21T13:47:18.766Z,16.33
2023-02-21T13:49:53.415Z,18.02
2023-02-21T13:52:59.070Z,16.30
2023-02-21T13:55:32.790Z,20.42
2023-02-21T13:58:34.027Z,13.27
2023-02-21T14:01:25.119Z,17.83
2023-02-21T14:03:58.657Z,15.95
2023-02-21T14:06:34.667Z,20.20
2023-02-21T14:09:13.807Z,13.32
2023-02-21T14:11:49.350Z,23.38
2023-02-21T14:14:26.394Z,19.88
2023-02-21T14:17:02.216Z,20.45
2023-02-21T14:19:38.184Z,15.45
2023-02-21T14:22:14.318Z,20.55
2023-02-21T14:24:48.415Z,20.20
2023-02-21T14:27:38.610Z,18.60
2023-02-21T14:30:32.534Z,22.13
2023-02-21T14:33:23.602Z,16.80
2023-02-21T14:36:00.831Z,16.27
2023-02-21T14:38:33.931Z,35.10
2023-02-21T14:41:14.306Z,95.03
2023-02-21T14:46:47.353Z,73.97
2023-02-21T14:49:53.406Z,60.38
2023-02-21T14:52:59.725Z,63.38
2023-02-21T14:55:51.337Z,34.42
2023-02-21T14:58:40.427Z,41.10
2023-02-21T15:01:17.832Z,40.47
2023-02-21T15:03:55.324Z,46.00
2023-02-21T15:06:25.236Z,31.58
2023-02-21T15:08:56.132Z,34.13
2023-02-21T15:11:29.742Z,34.20
2023-02-21T15:14:22.820Z,53.67
2023-02-21T15:16:57.137Z,36.63
2023-02-21T15:19:31.578Z,37.20
2023-02-21T15:22:17.986Z,24.42
2023-02-21T15:25:22.237Z,23.90
2023-02-21T15:27:59.820Z,30.33
2023-02-21T15:30:35.439Z,31.95
2023-02-21T15:33:12.199Z,36.55
2023-02-21T15:35:45.067Z,43.60
2023-02-21T15:38:21.019Z,46.22
2023-02-21T15:40:56.718Z,30.45
2023-02-21T15:43:37.783Z,32.22
2023-02-21T15:46:11.311Z,43.42
2023-02-21T15:48:40.632Z,46.42
2023-02-21T15:51:13.279Z,38.17
2023-02-21T15:53:42.492Z,102.93
2023-02-21T15:56:22.864Z,140.13
2023-02-21T15:59:14.340Z,37.80
2023-02-21T16:01:43.849Z,280.65
2023-02-21T16:04:17.707Z,35.63
2023-02-21T16:06:53.371Z,55.95
2023-02-21T16:09:29.077Z,61.38
2023-02-21T16:12:05.496Z,90.03
2023-02-21T16:14:42.450Z,100.40
2023-02-21T16:17:23.694Z,34.45
2023-02-21T16:19:56.172Z,76.28
2023-02-21T16:22:43.143Z,65.55
2023-02-21T16:25:24.671Z,138.35
2023-02-21T16:27:57.911Z,138.52
2023-02-21T16:30:29.219Z,86.07
2023-02-21T16:33:02.883Z,51.10
2023-02-21T16:35:32.833Z,49.90
2023-02-21T16:40:33.740Z,49.17
2023-02-21T16:43:06.763Z,69.40
2023-02-21T16:45:35.673Z,58.50
2023-02-21T16:48:07.317Z,81.90
2023-02-21T16:50:39.255Z,84.55
2023-02-21T16:53:13.616Z,73.65
2023-02-21T16:55:43.754Z,89.03
2023-02-21T16:58:24.233Z,38.38
2023-02-21T17:00:54.580Z,28.48
2023-02-21T17:03:25.233Z,36.38
2023-02-21T17:05:55.531Z,35.47
2023-02-21T17:08:25.684Z,42.13
2023-02-21T17:10:54.578Z,17.10
2023-02-21T17:13:25.159Z,39.75
2023-02-21T17:15:54.756Z,26.08
2023-02-21T17:18:24.289Z,50.15
2023-02-21T17:20:53.181Z,24.20
2023-02-21T17:23:22.546Z,21.35
2023-02-21T17:25:51.531Z,20.13
2023-02-21T17:28:20.659Z,17.00
2023-02-21T17:30:50.927Z,20.55
2023-02-21T17:33:20.138Z,15.10
2023-02-21T17:35:49.042Z,16.10
2023-02-21T17:38:18.311Z,12.00
2023-02-21T17:40:47.125Z,13.20
2023-02-21T17:43:17.405Z,14.00
2023-02-21T17:45:46.941Z,23.83
2023-02-21T17:48:17.747Z,38.63
2023-02-21T17:50:46.798Z,16.05
2023-02-21T17:53:15.922Z,20.30
2023-02-21T17:55:44.813Z,13.32
2023-02-21T17:58:13.991Z,13.77
2023-02-21T18:00:43.094Z,17.15
2023-02-21T18:03:12.228Z,15.33
2023-02-21T18:05:42.636Z,20.48
2023-02-21T18:08:12.063Z,36.72
2023-02-21T18:10:46.357Z,36.30
2023-02-21T18:13:20.967Z,34.13
2023-02-21T18:15:49.982Z,27.70
2023-02-21T18:18:19.568Z,36.95
2023-02-21T18:20:50.036Z,39.38
2023-02-21T18:23:19.268Z,13.23
2023-02-21T18:25:48.245Z,17.67
2023-02-21T18:28:17.437Z,14.02
2023-02-21T18:30:46.437Z,36.17
2023-02-21T18:33:15.772Z,19.83
2023-02-21T18:35:44.659Z,11.57
2023-02-21T18:38:16.461Z,12.23
2023-02-21T18:40:46.112Z,14.82
2023-02-21T18:43:20.579Z,5.90
2023-02-21T18:45:51.250Z,9.77
2023-02-21T18:48:20.921Z,6.68
2023-02-21T18:50:50.361Z,37.55
2023-02-21T18:53:21.623Z,38.25
2023-02-21T18:55:50.639Z,17.00
2023-02-21T18:58:19.827Z,12.15
2023-02-21T19:00:51.964Z,9.90
2023-02-21T19:03:22.079Z,8.13
2023-02-21T19:05:53.610Z,6.97
2023-02-21T19:08:24.377Z,15.77
2023-02-21T19:10:53.875Z,16.98
2023-02-21T19:13:22.981Z,19.83
2023-02-21T19:15:51.976Z,10.35
2023-02-21T19:18:21.162Z,11.25
2023-02-21T19:20:50.357Z,16.77
2023-02-21T19:23:19.592Z,25.40
2023-02-21T19:25:50.589Z,11.97
2023-02-21T19:28:19.554Z,28.27
2023-02-21T19:30:48.745Z,25.27
2023-02-21T19:33:17.851Z,8.90
2023-02-21T19:35:47.116Z,34.27
2023-02-21T19:38:16.041Z,41.47
2023-02-21T19:40:45.280Z,15.50
2023-02-21T19:43:15.871Z,14.65
2023-02-21T19:45:45.355Z,15.32
2023-02-21T19:48:15.978Z,5.55
2023-02-21T19:50:45.279Z,6.85
2023-02-21T19:53:14.886Z,8.85
2023-02-21T19:55:44.733Z,9.02
2023-02-21T19:58:15.268Z,11.57
2023-02-21T20:00:44.513Z,12.20
2023-02-21T20:03:13.928Z,10.60
2023-02-21T20:05:43.248Z,9.80
2023-02-21T20:08:12.370Z,15.10
2023-02-21T20:10:41.615Z,22.65
2023-02-21T20:13:10.475Z,12.88
2023-02-21T20:15:41.078Z,14.30
2023-02-21T20:18:10.103Z,12.23
2023-02-21T20:20:39.250Z,14.33
2023-02-21T20:23:09.014Z,35.83
2023-02-21T20:25:38.738Z,25.95
2023-02-21T20:28:08.177Z,13.27
2023-02-21T20:30:37.928Z,15.27
2023-02-21T20:33:08.334Z,6.82
2023-02-21T20:35:37.685Z,8.63
2023-02-21T20:38:08.624Z,5.60
2023-02-21T20:40:38.592Z,4.97
2023-02-21T20:43:07.510Z,7.80
2023-02-21T20:45:38.547Z,6.90
2023-02-21T20:48:11.792Z,10.45
2023-02-21T20:50:41.726Z,7.75
2023-02-21T20:53:11.740Z,2.80
2023-02-21T20:58:10.518Z,5.40
2023-02-21T21:00:40.151Z,20.92
2023-02-21T21:03:15.268Z,7.30
2023-02-21T21:05:45.123Z,4.85
2023-02-21T21:08:13.982Z,7.55
2023-02-21T21:10:48.671Z,5.78
2023-02-21T21:13:18.145Z,9.15
2023-02-21T21:15:47.458Z,16.38
2023-02-21T21:18:17.737Z,21.52
2023-02-21T21:20:47.332Z,15.82
2023-02-21T21:23:16.160Z,10.55
2023-02-21T21:25:45.387Z,9.55
2023-02-21T21:28:14.202Z,19.80
2023-02-21T21:30:43.599Z,14.18
2023-02-21T21:33:12.566Z,7.95
2023-02-21T21:35:43.080Z,6.60
2023-02-21T21:40:41.065Z,11.82
2023-02-21T21:43:12.315Z,8.05
2023-02-21T21:45:44.441Z,10.10
2023-02-21T21:48:14.999Z,8.90
2023-02-21T21:50:45.812Z,5.72
2023-02-21T21:53:15.099Z,5.57
2023-02-21T21:55:44.247Z,5.82
2023-02-21T21:58:13.962Z,2.95
2023-02-21T22:00:43.265Z,6.30
2023-02-21T22:03:14.384Z,4.20
2023-02-21T22:05:45.469Z,4.05
2023-02-21T22:08:17.912Z,4.90
2023-02-21T22:10:48.396Z,3.72
2023-02-21T22:13:20.749Z,3.55
2023-02-21T22:15:50.256Z,5.97
2023-02-21T22:18:20.478Z,3.13
2023-02-21T22:20:51.272Z,7.25
2023-02-21T22:23:24.117Z,3.22
2023-02-21T22:25:53.561Z,3.42
2023-02-21T22:28:22.405Z,8.25
2023-02-21T22:30:52.335Z,4.93
2023-02-21T22:33:22.566Z,3.92
2023-02-21T22:35:53.128Z,3.60
2023-02-21T22:38:22.074Z,5.15
2023-02-21T22:40:51.205Z,6.35
2023-02-21T22:43:20.090Z,5.28
2023-02-21T22:45:50.199Z,5.60
2023-02-21T22:48:21.202Z,5.78
2023-02-21T22:50:52.375Z,3.83
2023-02-21T22:53:21.471Z,3.63
2023-02-21T22:55:52.455Z,5.57
2023-02-21T22:58:22.058Z,3.40
2023-02-21T23:00:53.412Z,3.75
2023-02-21T23:03:22.342Z,2.85
2023-02-21T23:05:54.886Z,3.47
2023-02-21T23:08:24.702Z,4.90
2023-02-21T23:10:53.805Z,3.33
2023-02-21T23:13:25.366Z,4.25
2023-02-21T23:15:57.480Z,3.53
2023-02-21T23:18:27.774Z,2.25
2023-02-21T23:20:59.499Z,4.35
2023-02-21T23:23:29.926Z,3.20
2023-02-21T23:26:00.576Z,6.50
2023-02-21T23:28:31.035Z,4.65
2023-02-21T23:31:00.491Z,6.03
2023-02-21T23:33:34.008Z,4.05
2023-02-21T23:36:05.341Z,6.53
2023-02-21T23:38:38.445Z,5.25
2023-02-21T23:41:09.065Z,6.97
2023-02-21T23:43:40.044Z,6.05
2023-02-21T23:46:10.347Z,6.53
2023-02-21T23:48:39.178Z,4.88
2023-02-21T23:51:10.232Z,5.90
2023-02-21T23:53:39.279Z,4.93
2023-02-21T23:56:13.132Z,5.93
2023-02-21T23:58:45.387Z,6.25
